Time;durP1;ratioP1;P1;durP2;ratioP2;P2;SDS_P1;SDS_P2;PMS_P1;PMS_P2;Temp;Humidity;BMP_temperature;BMP_pressure;BME280_temperature;BME280_humidity;BME280_pressure;Samples;Min_cycle;Max_cycle;Signal;HPM_P1;HPM_P2
2022/08/11 00:01:44;;;;;;;10.63;6.90;;;18.80;99.90;;;;;;5072398;28;20064;-67
2022/08/11 00:04:12;;;;;;;11.40;7.60;;;18.70;99.90;;;;;;5072314;28;20106;-67
2022/08/11 00:06:39;;;;;;;10.38;7.47;;;18.80;99.90;;;;;;5088173;28;20050;-67
2022/08/11 00:09:09;;;;;;;13.23;8.05;;;18.70;99.90;;;;;;5072228;28;20493;-67
2022/08/11 00:11:42;;;;;;;12.57;7.80;;;18.70;99.90;;;;;;5096033;22;20066;-70
2022/08/11 00:14:13;;;;;;;18.05;9.00;;;18.70;99.90;;;;;;5072205;28;20068;-70
2022/08/11 00:16:40;;;;;;;16.85;8.95;;;18.50;99.90;;;;;;5071989;28;20489;-70
2022/08/11 00:19:07;;;;;;;16.95;9.52;;;18.50;99.90;;;;;;5071515;28;20116;-70
2022/08/11 00:21:42;;;;;;;16.65;9.10;;;18.50;99.90;;;;;;5071840;28;20041;-70
2022/08/11 00:24:08;;;;;;;15.65;8.13;;;18.50;99.90;;;;;;5071913;28;20080;-69
2022/08/11 00:26:35;;;;;;;17.75;10.18;;;18.40;99.90;;;;;;5072031;28;20036;-70
2022/08/11 00:29:09;;;;;;;17.75;10.07;;;18.50;99.90;;;;;;5071834;28;20047;-70
2022/08/11 00:31:35;;;;;;;15.85;9.63;;;18.30;99.90;;;;;;5071394;28;20067;-70
2022/08/11 00:34:03;;;;;;;14.30;9.13;;;18.60;99.90;;;;;;5072028;28;20028;-70
2022/08/11 00:36:50;;;;;;;12.73;8.20;;;18.30;99.90;;;;;;5071758;28;20401;-70
2022/08/11 00:39:19;;;;;;;15.27;8.10;;;18.40;99.90;;;;;;5071578;28;20041;-70
2022/08/11 00:42:08;;;;;;;13.02;8.43;;;18.40;99.90;;;;;;5071617;28;20102;-70
2022/08/11 00:44:58;;;;;;;12.13;9.05;;;18.40;99.90;;;;;;5071852;28;20371;-69
2022/08/11 00:48:08;;;;;;;11.20;8.80;;;18.20;99.90;;;;;;5071763;28;20041;-70
2022/08/11 00:50:37;;;;;;;15.15;8.02;;;18.50;99.90;;;;;;5047529;28;20052;-69
2022/08/11 00:53:11;;;;;;;12.65;8.50;;;18.20;99.90;;;;;;5071817;28;20036;-69
2022/08/11 00:56:03;;;;;;;15.02;9.68;;;18.20;99.90;;;;;;5071644;28;20041;-69
2022/08/11 00:58:50;;;;;;;19.63;11.32;;;18.30;99.90;;;;;;5071509;28;20036;-69
2022/08/11 01:01:16;;;;;;;15.35;10.32;;;18.10;99.90;;;;;;5071325;28;20049;-69
2022/08/11 01:04:08;;;;;;;16.70;11.95;;;18.10;99.90;;;;;;5071608;28;20042;-69
2022/08/11 01:06:49;;;;;;;19.52;12.07;;;18.40;99.90;;;;;;5071755;28;20131;-69
2022/08/11 01:09:30;;;;;;;19.77;11.32;;;18.20;99.90;;;;;;5074198;28;20570;-69
2022/08/11 01:12:27;;;;;;;17.02;10.95;;;18.40;99.90;;;;;;5075468;28;20044;-69
2022/08/11 01:15:19;;;;;;;17.63;10.93;;;18.30;99.90;;;;;;5072481;28;20480;-69
2022/08/11 01:18:22;;;;;;;18.42;11.23;;;18.10;99.90;;;;;;5075801;28;20079;-69
2022/08/11 01:21:12;;;;;;;16.60;10.82;;;18.00;99.90;;;;;;5075294;28;20465;-69
2022/08/11 01:24:19;;;;;;;16.10;10.40;;;18.00;99.90;;;;;;5075835;28;20056;-69
2022/08/11 01:27:23;;;;;;;17.25;10.60;;;18.00;99.90;;;;;;5075616;28;20037;-69
2022/08/11 01:30:40;;;;;;;12.40;8.77;;;18.10;99.90;;;;;;5075067;28;20493;-69
2022/08/11 01:33:44;;;;;;;14.05;8.65;;;18.10;99.90;;;;;;5075616;28;20040;-70
2022/08/11 01:36:30;;;;;;;15.35;8.88;;;18.20;99.90;;;;;;5075080;28;20040;-70
2022/08/11 01:39:15;;;;;;;12.85;8.75;;;18.00;99.90;;;;;;5075276;28;20048;-69
2022/08/11 01:45:36;;;;;;;10.80;8.38;;;17.90;99.90;;;;;;5075003;28;20048;-69
2022/08/11 01:48:27;;;;;;;13.13;9.10;;;17.70;99.90;;;;;;5074993;28;20029;-69
2022/08/11 01:51:31;;;;;;;11.32;9.50;;;18.00;99.90;;;;;;5073268;28;20041;-69
2022/08/11 01:54:03;;;;;;;14.82;10.02;;;18.00;99.90;;;;;;5043479;28;20055;-69
2022/08/11 01:56:39;;;;;;;11.30;8.45;;;18.10;99.90;;;;;;5074755;28;20490;-69
2022/08/11 01:59:14;;;;;;;13.05;8.07;;;18.10;99.90;;;;;;5074570;28;20040;-69
2022/08/11 02:01:59;;;;;;;12.05;9.48;;;18.00;99.90;;;;;;5074679;28;20045;-69
2022/08/11 02:04:42;;;;;;;14.45;9.68;;;17.80;99.90;;;;;;5074627;28;20070;-69
2022/08/11 02:07:26;;;;;;;;;;;17.90;99.90;;;;;;5074987;28;20105;-69
2022/08/11 02:11:29;;;;;;;13.98;10.50;;;17.80;99.90;;;;;;5074409;28;20016;-69
2022/08/11 02:12:56;;;;;;;13.70;9.65;;;17.60;99.90;;;;;;5074113;28;20144;-69
2022/08/11 02:15:41;;;;;;;10.95;9.15;;;17.80;99.90;;;;;;5074452;28;20040;-69
2022/08/11 02:18:22;;;;;;;15.68;10.88;;;18.00;99.90;;;;;;5073730;28;20051;-69
2022/08/11 02:23:50;;;;;;;15.48;11.68;;;17.60;99.90;;;;;;5074233;28;20506;-69
2022/08/11 02:26:25;;;;;;;17.27;10.60;;;17.70;99.90;;;;;;5074166;28;20036;-69
2022/08/11 02:29:19;;;;;;;15.32;11.45;;;17.90;99.90;;;;;;5074392;28;20045;-69
2022/08/11 02:34:59;;;;;;;15.70;10.88;;;17.80;99.90;;;;;;5074246;28;20052;-69
2022/08/11 02:37:31;;;;;;;15.02;11.20;;;17.70;99.90;;;;;;5073027;28;20051;-69
2022/08/11 02:39:56;;;;;;;18.05;12.50;;;17.70;99.90;;;;;;5073642;28;20490;-69
2022/08/11 02:42:36;;;;;;;18.88;11.90;;;17.90;99.90;;;;;;5073844;28;20124;-69
2022/08/11 02:45:11;;;;;;;15.60;11.20;;;17.90;99.90;;;;;;5074111;28;20083;-69
2022/08/11 02:51:22;;;;;;;18.52;13.63;;;17.70;99.90;;;;;;5073300;28;20040;-69
2022/08/11 02:53:56;;;;;;;18.80;12.63;;;17.60;99.90;;;;;;5074038;28;20090;-69
2022/08/11 02:56:25;;;;;;;18.70;12.93;;;17.60;99.90;;;;;;5084684;28;20037;-69
2022/08/11 03:02:40;;;;;;;24.85;13.82;;;17.70;99.90;;;;;;5073745;28;20044;-69
2022/08/11 03:05:16;;;;;;;16.80;11.90;;;17.30;99.90;;;;;;5074259;28;20047;-69
2022/08/11 03:08:06;;;;;;;17.60;14.10;;;17.30;99.90;;;;;;5073477;28;20068;-69
2022/08/11 03:10:35;;;;;;;21.52;13.88;;;17.60;99.90;;;;;;5073124;28;20036;-69
2022/08/11 03:16:47;;;;;;;17.92;13.55;;;17.70;99.90;;;;;;5073226;28;20048;-69
2022/08/11 03:19:31;;;;;;;17.92;12.65;;;17.60;99.90;;;;;;5071958;28;20521;-69
2022/08/11 03:22:20;;;;;;;18.35;13.75;;;17.30;99.90;;;;;;5073134;28;20171;-69
2022/08/11 03:24:58;;;;;;;17.35;14.15;;;17.20;99.90;;;;;;5073216;28;20127;-69
2022/08/11 03:27:42;;;;;;;19.98;13.27;;;17.70;99.90;;;;;;5073065;28;20032;-69
2022/08/11 03:30:31;;;;;;;20.02;12.82;;;17.60;99.90;;;;;;5071062;28;20039;-69
2022/08/11 03:36:11;;;;;;;17.88;13.52;;;17.30;99.90;;;;;;5071540;28;20048;-69
2022/08/11 03:39:02;;;;;;;27.20;16.17;;;17.60;99.90;;;;;;5072894;28;20048;-69
2022/08/11 03:41:46;;;;;;;20.77;14.60;;;17.60;99.90;;;;;;5072292;28;20521;-69
2022/08/11 03:44:33;;;;;;;20.67;13.85;;;17.30;99.90;;;;;;5072538;28;20383;-69
2022/08/11 03:47:23;;;;;;;22.52;15.05;;;17.50;99.90;;;;;;5072633;28;20494;-69
2022/08/11 03:49:51;;;;;;;19.00;14.45;;;17.30;99.90;;;;;;5072470;28;20033;-69
2022/08/11 03:52:30;;;;;;;20.58;14.25;;;17.50;99.90;;;;;;5072574;28;20121;-69
2022/08/11 03:55:15;;;;;;;17.45;14.55;;;17.40;99.90;;;;;;5071255;28;20086;-69
2022/08/11 03:58:14;;;;;;;21.98;15.73;;;17.40;99.90;;;;;;5072276;28;20044;-69
2022/08/11 04:01:04;;;;;;;20.40;14.82;;;17.20;99.90;;;;;;5072094;28;20041;-69
2022/08/11 04:04:07;;;;;;;20.85;15.52;;;17.10;99.90;;;;;;5072246;28;20525;-69
2022/08/11 04:07:10;;;;;;;18.33;13.38;;;17.50;99.90;;;;;;5072385;28;20051;-69
2022/08/11 04:10:17;;;;;;;24.80;15.40;;;17.00;99.90;;;;;;5072031;28;20040;-69
2022/08/11 04:13:08;;;;;;;23.35;15.88;;;17.50;99.90;;;;;;5071902;28;20041;-69
2022/08/11 04:16:14;;;;;;;19.52;15.23;;;17.20;99.90;;;;;;5071141;28;20051;-69
2022/08/11 04:19:11;;;;;;;22.45;15.18;;;17.40;99.90;;;;;;5072039;28;20459;-69
2022/08/11 04:22:22;;;;;;;21.50;14.07;;;17.40;99.90;;;;;;5072124;28;20064;-69
2022/08/11 04:25:07;;;;;;;21.75;14.52;;;17.40;99.90;;;;;;5009851;28;20503;-69
2022/08/11 04:28:03;;;;;;;21.75;14.15;;;17.40;99.90;;;;;;5067350;28;20399;-69
2022/08/11 04:30:53;;;;;;;18.70;14.05;;;17.40;99.90;;;;;;5040145;28;20052;-69
2022/08/11 04:33:40;;;;;;;20.58;14.15;;;17.10;99.90;;;;;;5071735;28;20567;-69
2022/08/11 04:39:58;;;;;;;19.02;14.40;;;17.50;99.90;;;;;;5071340;28;20041;-69
2022/08/11 04:45:36;;;;;;;18.63;13.07;;;17.10;99.90;;;;;;5070796;28;19921;-69
2022/08/11 05:01:41;;;;;;;21.02;14.00;;;17.60;99.90;;;;;;5071452;28;20119;-69
2022/08/11 05:07:20;;;;;;;16.48;12.05;;;17.50;99.90;;;;;;5071628;28;20041;-68
2022/08/11 05:10:37;;;;;;;15.95;13.18;;;17.70;99.90;;;;;;5071369;28;20123;-68
2022/08/11 05:36:30;;;;;;;18.00;10.50;;;19.30;99.90;;;;;;5069918;28;20052;-69
2022/08/11 05:58:38;;;;;;;23.30;10.35;;;20.60;99.90;;;;;;5074636;28;20083;-69
2022/08/11 06:01:04;;;;;;;32.97;10.75;;;20.80;99.90;;;;;;5073012;28;20051;-69
2022/08/11 06:04:12;;;;;;;35.25;12.27;;;20.80;99.90;;;;;;5073273;28;20482;-69
2022/08/11 06:06:19;;;;;;;65.85;14.45;;;20.90;99.90;;;;;;5074445;28;20563;-69
2022/08/11 06:08:45;;;;;;;25.98;9.27;;;21.20;99.90;;;;;;5074500;28;20044;-69
2022/08/11 06:11:12;;;;;;;12.77;8.40;;;21.40;99.90;;;;;;5099370;22;20040;-66
2022/08/11 06:13:44;;;;;;;9.98;7.63;;;21.60;99.90;;;;;;5094961;28;20105;-66
2022/08/11 06:16:13;;;;;;;9.35;7.63;;;21.70;99.90;;;;;;5094821;28;20486;-67
2022/08/11 06:18:39;;;;;;;10.05;6.97;;;22.00;99.90;;;;;;5094381;28;20048;-66
2022/08/11 06:21:10;;;;;;;9.73;6.47;;;22.20;99.90;;;;;;5094219;28;20032;-66
2022/08/11 06:23:36;;;;;;;7.65;6.20;;;22.40;99.90;;;;;;5094470;28;20540;-66
2022/08/11 06:26:11;;;;;;;9.50;6.82;;;22.60;99.90;;;;;;5094358;28;20520;-66
2022/08/11 06:28:39;;;;;;;9.85;7.18;;;22.70;99.40;;;;;;5094716;28;20036;-67
2022/08/11 06:31:25;;;;;;;11.15;7.38;;;22.70;99.20;;;;;;5093059;28;20043;-66
2022/08/11 06:34:27;;;;;;;15.80;7.18;;;22.70;98.10;;;;;;5093353;28;20059;-66
2022/08/11 06:37:19;;;;;;;10.82;6.53;;;22.80;96.90;;;;;;5094371;28;20120;-67
2022/08/11 06:39:51;;;;;;;7.97;6.50;;;22.90;97.20;;;;;;5094049;28;20043;-67
2022/08/11 06:43:01;;;;;;;8.57;6.45;;;23.10;96.50;;;;;;5093882;28;20063;-67
2022/08/11 06:45:32;;;;;;;9.07;6.30;;;23.20;96.00;;;;;;5094343;28;20044;-66
2022/08/11 06:47:59;;;;;;;7.65;5.45;;;23.40;96.00;;;;;;5094230;28;20032;-66
2022/08/11 06:53:12;;;;;;;8.52;6.35;;;23.80;95.60;;;;;;5094313;28;20040;-66
2022/08/11 07:01:46;;;;;;;7.80;5.85;;;24.10;93.10;;;;;;5093613;28;20074;-66
2022/08/11 07:04:16;;;;;;;8.70;5.80;;;24.40;92.50;;;;;;5093212;28;20493;-66
2022/08/11 07:15:49;;;;;;;18.75;8.05;;;25.00;90.10;;;;;;5093473;28;20048;-67
2022/08/11 07:29:54;;;;;;;8.68;5.43;;;25.50;83.20;;;;;;5093034;28;20403;-67
2022/08/11 07:32:30;;;;;;;6.20;4.30;;;25.70;81.10;;;;;;5093062;28;20036;-67
2022/08/11 07:35:03;;;;;;;7.57;4.82;;;25.90;79.00;;;;;;5093337;28;20110;-67
2022/08/11 07:37:32;;;;;;;5.72;4.82;;;25.90;79.20;;;;;;5093059;28;20123;-67
2022/08/11 07:39:59;;;;;;;5.68;4.20;;;26.10;78.10;;;;;;5092630;28;20047;-67
2022/08/11 07:42:29;;;;;;;6.72;3.83;;;26.30;75.60;;;;;;5092850;28;20039;-67
2022/08/11 07:53:13;;;;;;;7.32;4.13;;;26.90;72.80;;;;;;5092960;28;20050;-67
2022/08/11 07:55:41;;;;;;;6.07;3.15;;;27.10;70.60;;;;;;5092964;28;20114;-67
2022/08/11 08:20:16;;;;;;;3.78;2.50;;;28.10;60.50;;;;;;5092065;28;20047;-68
2022/08/11 08:22:42;;;;;;;5.65;2.85;;;28.30;60.60;;;;;;5092523;28;20035;-68
2022/08/11 08:25:08;;;;;;;6.28;2.50;;;28.20;59.10;;;;;;5092475;28;20047;-67
2022/08/11 08:27:35;;;;;;;7.30;2.25;;;28.30;58.40;;;;;;5092164;28;20028;-67
2022/08/11 08:32:48;;;;;;;8.23;2.63;;;28.60;58.60;;;;;;5092209;28;20052;-67
2022/08/11 08:35:14;;;;;;;3.88;2.13;;;28.70;57.90;;;;;;5092333;28;20036;-67
2022/08/11 08:37:40;;;;;;;6.93;2.47;;;28.90;56.90;;;;;;5092226;28;20411;-67
2022/08/11 08:40:08;;;;;;;3.72;2.33;;;28.90;56.30;;;;;;5091870;28;20039;-67
2022/08/11 08:42:53;;;;;;;3.17;1.77;;;29.20;55.70;;;;;;5091846;28;20044;-67
2022/08/11 08:45:20;;;;;;;7.22;2.08;;;29.30;55.30;;;;;;5071703;28;20115;-67
2022/08/11 08:47:59;;;;;;;5.30;2.10;;;29.50;55.20;;;;;;5072001;28;20045;-67
2022/08/11 08:51:33;;;;;;;3.90;1.70;;;29.50;54.20;;;;;;5070241;28;20458;-68
2022/08/11 08:53:21;;;;;;;4.97;1.65;;;29.70;54.40;;;;;;5071581;28;20055;-67
2022/08/11 08:55:49;;;;;;;6.35;1.98;;;29.90;52.60;;;;;;5071688;28;20048;-68
2022/08/11 08:58:17;;;;;;;2.95;1.73;;;29.60;54.60;;;;;;5071891;28;20033;-68
2022/08/11 09:00:45;;;;;;;5.15;1.45;;;29.90;52.70;;;;;;5071305;28;20486;-67
2022/08/11 09:03:12;;;;;;;3.85;1.90;;;30.00;51.90;;;;;;5071590;28;20367;-67
2022/08/11 09:05:39;;;;;;;7.13;1.60;;;30.10;50.60;;;;;;5071448;28;20045;-67
2022/08/11 09:08:06;;;;;;;4.90;1.17;;;30.00;49.80;;;;;;5071587;28;20044;-67
2022/08/11 09:10:32;;;;;;;3.95;1.40;;;29.90;48.10;;;;;;5069977;28;20075;-68
2022/08/11 09:13:02;;;;;;;6.10;1.60;;;29.90;48.50;;;;;;5070096;28;20053;-68
2022/08/11 09:15:28;;;;;;;4.18;1.52;;;29.60;48.60;;;;;;5071470;28;20577;-68
2022/08/11 09:18:04;;;;;;;2.45;1.05;;;29.80;48.60;;;;;;5071455;28;20036;-67
2022/08/11 09:20:33;;;;;;;5.50;1.13;;;29.90;47.90;;;;;;5071101;28;20040;-68
2022/08/11 09:28:35;;;;;;;3.03;1.27;;;30.00;46.20;;;;;;5093499;28;20126;-67
2022/08/11 09:31:01;;;;;;;2.15;1.40;;;30.00;45.70;;;;;;5095246;28;20032;-68
2022/08/11 09:33:29;;;;;;;2.67;1.20;;;29.90;46.00;;;;;;5095780;28;20405;-67
2022/08/11 09:35:56;;;;;;;6.20;1.60;;;29.90;46.70;;;;;;5095650;28;20089;-67
2022/08/11 09:41:11;;;;;;;4.57;1.35;;;29.90;45.60;;;;;;5095080;28;20079;-68
2022/08/11 09:46:29;;;;;;;6.80;1.35;;;30.00;45.40;;;;;;5095366;28;20052;-68
2022/08/11 09:48:58;;;;;;;4.13;1.55;;;29.70;45.70;;;;;;5093826;28;20119;-68
2022/08/11 09:51:28;;;;;;;5.13;1.08;;;29.70;46.40;;;;;;5106476;28;20032;-68
2022/08/11 09:53:54;;;;;;;5.05;1.30;;;29.70;46.00;;;;;;5095061;28;20043;-68
2022/08/11 09:59:08;;;;;;;1.52;1.25;;;29.80;45.80;;;;;;5094811;28;20052;-68
2022/08/11 10:01:40;;;;;;;3.08;1.60;;;29.70;45.20;;;;;;5094284;28;20063;-68
2022/08/11 10:04:18;;;;;;;5.95;1.48;;;29.60;45.20;;;;;;5094940;28;20036;-68
2022/08/11 10:07:00;;;;;;;2.00;1.35;;;29.80;45.40;;;;;;5094528;28;20667;-68
2022/08/11 10:09:42;;;;;;;2.45;1.23;;;29.80;44.60;;;;;;5094467;28;20042;-68
2022/08/11 10:12:13;;;;;;;7.95;1.35;;;29.60;44.90;;;;;;5094457;28;20028;-68
2022/08/11 10:17:31;;;;;;;3.58;1.10;;;29.50;44.10;;;;;;5080818;28;20044;-68
2022/08/11 10:20:01;;;;;;;2.13;1.30;;;29.60;44.70;;;;;;5094027;28;20044;-68
2022/08/11 10:27:59;;;;;;;5.13;1.73;;;29.50;44.70;;;;;;5082759;28;20072;-68
2022/08/11 10:35:58;;;;;;;3.00;1.30;;;29.50;44.70;;;;;;5094003;28;20051;-68
2022/08/11 10:38:26;;;;;;;6.50;1.50;;;29.40;44.30;;;;;;5094136;28;20040;-68
2022/08/11 10:43:39;;;;;;;6.40;1.98;;;29.40;43.90;;;;;;5093821;28;20044;-68
2022/08/11 10:48:55;;;;;;;2.47;1.38;;;29.50;44.00;;;;;;5093860;28;20036;-67
2022/08/11 10:59:38;;;;;;;4.82;1.83;;;29.40;43.40;;;;;;5093675;28;20044;-67
2022/08/11 11:02:04;;;;;;;2.97;1.88;;;29.40;43.30;;;;;;5093921;28;20055;-67
2022/08/11 11:04:59;;;;;;;3.63;1.50;;;29.50;44.10;;;;;;5092426;28;20489;-67
2022/08/11 11:07:51;;;;;;;4.47;1.35;;;29.50;43.60;;;;;;5094010;28;20043;-68
2022/08/11 11:10:17;;;;;;;4.03;1.33;;;29.50;44.50;;;;;;5093549;28;20104;-68
2022/08/11 11:18:27;;;;;;;4.50;1.17;;;29.50;43.20;;;;;;5093733;28;20048;-68
2022/08/11 11:21:00;;;;;;;3.72;1.30;;;29.20;43.40;;;;;;5092813;28;20039;-68
2022/08/11 11:23:52;;;;;;;2.67;1.60;;;29.20;43.90;;;;;;5092975;28;20040;-68
2022/08/11 11:26:49;;;;;;;2.35;1.25;;;29.20;43.80;;;;;;5093251;28;20035;-68
2022/08/11 11:29:29;;;;;;;3.20;1.85;;;29.10;44.10;;;;;;5093058;28;20032;-67
2022/08/11 11:32:22;;;;;;;4.00;1.60;;;29.20;44.40;;;;;;5093148;28;20032;-68
2022/08/11 11:35:00;;;;;;;;;;;29.30;44.80;;;;;;5093848;28;20039;-68
2022/08/11 11:37:32;;;;;;;2.90;1.42;;;29.10;44.50;;;;;;5093286;28;19984;-68
2022/08/11 11:39:58;;;;;;;2.78;1.10;;;29.20;44.00;;;;;;5092659;28;20067;-68
2022/08/11 11:42:24;;;;;;;4.55;1.23;;;29.10;43.00;;;;;;5091823;28;20079;-68
2022/08/11 11:44:50;;;;;;;3.47;1.27;;;29.20;42.40;;;;;;5093196;28;20051;-68
2022/08/11 11:47:21;;;;;;;3.65;1.60;;;29.40;42.50;;;;;;5092592;28;20036;-68
2022/08/11 11:49:48;;;;;;;5.95;1.30;;;29.30;42.70;;;;;;5092379;28;20070;-68
2022/08/11 11:52:17;;;;;;;3.40;1.45;;;29.30;43.00;;;;;;5091709;28;20032;-68
2022/08/11 11:54:49;;;;;;;2.15;1.35;;;29.20;42.50;;;;;;5092103;28;20075;-67
2022/08/11 12:02:48;;;;;;;4.05;1.40;;;29.20;42.50;;;;;;5092603;28;20056;-68
2022/08/11 12:05:14;;;;;;;2.15;1.25;;;29.00;42.90;;;;;;5092190;28;20043;-67
2022/08/11 12:10:25;;;;;;;3.47;1.27;;;29.10;43.30;;;;;;5092290;28;20044;-68
2022/08/11 12:15:36;;;;;;;2.95;1.10;;;29.30;42.70;;;;;;5072083;28;20501;-71
2022/08/11 12:18:02;;;;;;;1.65;1.20;;;29.30;42.60;;;;;;5072202;28;20471;-70
2022/08/11 12:20:29;;;;;;;1.92;1.13;;;29.20;42.10;;;;;;5071670;28;20044;-70
2022/08/11 12:28:25;;;;;;;4.53;1.08;;;29.20;41.90;;;;;;5071775;28;20482;-71
2022/08/11 12:30:52;;;;;;;4.72;1.40;;;29.10;41.60;;;;;;5053490;28;20033;-71
2022/08/11 12:33:18;;;;;;;5.28;1.20;;;29.10;42.00;;;;;;5071766;28;20036;-71
2022/08/11 12:35:46;;;;;;;4.15;1.40;;;29.20;41.90;;;;;;5071808;28;20048;-72
2022/08/11 12:38:14;;;;;;;3.80;1.73;;;29.20;42.00;;;;;;5071839;28;20122;-70
2022/08/11 12:46:30;;;;;;;3.65;1.25;;;29.20;40.70;;;;;;5071597;28;20057;-71
2022/08/11 12:52:00;;;;;;;2.75;1.30;;;29.30;40.40;;;;;;5069951;28;20447;-71
2022/08/11 12:54:43;;;;;;;4.88;1.27;;;29.30;40.50;;;;;;5070557;28;20082;-71
2022/08/11 13:05:31;;;;;;;4.13;1.35;;;29.40;41.20;;;;;;5071357;28;20090;-71
2022/08/11 13:08:00;;;;;;;5.13;1.55;;;29.40;41.00;;;;;;5071666;28;20040;-71
2022/08/11 13:13:13;;;;;;;3.78;1.30;;;29.40;39.50;;;;;;5071329;28;20048;-70
2022/08/11 13:15:39;;;;;;;1.75;1.05;;;29.40;39.60;;;;;;5070230;28;20447;-70
2022/08/11 13:18:06;;;;;;;4.22;1.30;;;29.40;39.80;;;;;;5071369;28;20394;-70
2022/08/11 13:20:33;;;;;;;4.00;1.83;;;29.40;40.20;;;;;;5071272;28;20044;-69
2022/08/11 13:22:59;;;;;;;4.35;1.10;;;29.40;40.60;;;;;;5071471;28;20119;-70
2022/08/11 13:25:28;;;;;;;2.22;1.00;;;29.50;41.00;;;;;;5071346;28;20036;-71
2022/08/11 13:27:58;;;;;;;7.22;1.65;;;29.70;41.10;;;;;;5071436;28;20075;-71
2022/08/11 13:33:17;;;;;;;3.97;1.02;;;29.70;40.80;;;;;;5071329;28;20051;-71
2022/08/11 13:35:48;;;;;;;3.47;1.25;;;29.60;41.20;;;;;;5069017;28;20058;-72
2022/08/11 13:38:16;;;;;;;3.25;1.50;;;29.60;40.70;;;;;;5087305;28;20040;-71
2022/08/11 13:40:42;;;;;;;1.90;1.20;;;29.60;40.80;;;;;;5090950;28;20044;-72
2022/08/11 13:43:09;;;;;;;3.42;1.25;;;29.70;40.90;;;;;;5091038;28;20063;-71
2022/08/11 13:45:36;;;;;;;1.77;1.13;;;29.80;40.90;;;;;;5083411;28;20517;-72
2022/08/11 13:48:07;;;;;;;2.92;1.20;;;29.70;41.10;;;;;;5070054;28;20048;-71
2022/08/11 13:53:21;;;;;;;3.50;1.17;;;29.70;41.10;;;;;;5068794;28;20036;-71
2022/08/11 13:55:48;;;;;;;3.80;1.17;;;29.60;41.30;;;;;;5070745;28;20044;-71
2022/08/11 13:58:15;;;;;;;3.92;1.45;;;29.60;41.80;;;;;;5070519;28;20540;-72
2022/08/11 14:00:47;;;;;;;6.00;1.52;;;29.70;42.20;;;;;;5070765;28;20086;-71
2022/08/11 14:03:13;;;;;;;4.65;1.45;;;29.70;41.90;;;;;;5071068;28;20065;-72
2022/08/11 14:05:46;;;;;;;2.10;1.33;;;29.60;42.60;;;;;;5070816;28;20044;-70
2022/08/11 14:08:17;;;;;;;2.72;1.13;;;29.60;42.30;;;;;;5069704;28;20437;-71
2022/08/11 14:10:45;;;;;;;4.05;1.15;;;29.60;42.50;;;;;;5069881;28;20071;-71
2022/08/11 14:16:08;;;;;;;4.35;1.50;;;29.70;41.90;;;;;;5072571;28;20052;-71
2022/08/11 14:18:38;;;;;;;4.38;1.15;;;29.70;42.10;;;;;;5071981;28;20445;-72
2022/08/11 14:23:54;;;;;;;3.25;1.65;;;29.60;42.50;;;;;;5071255;28;20040;-71
2022/08/11 14:26:27;;;;;;;5.85;1.25;;;29.50;42.90;;;;;;5072579;28;20041;-71
2022/08/11 14:28:56;;;;;;;1.88;1.13;;;29.40;43.10;;;;;;5074121;28;20044;-71
2022/08/11 14:31:24;;;;;;;3.13;1.38;;;29.30;42.10;;;;;;5073990;28;20033;-70
2022/08/11 14:33:53;;;;;;;3.38;1.50;;;29.40;43.30;;;;;;5074068;28;20517;-71
2022/08/11 14:36:21;;;;;;;2.78;1.15;;;29.30;43.80;;;;;;5074090;28;20040;-71
2022/08/11 14:38:47;;;;;;;3.65;1.35;;;29.20;43.70;;;;;;5072624;28;20037;-71
2022/08/11 14:49:27;;;;;;;9.13;5.95;;;29.00;43.90;;;;;;5073456;28;20040;-70
2022/08/11 14:51:56;;;;;;;9.75;5.90;;;29.00;43.80;;;;;;5073583;28;20509;-71
2022/08/11 14:57:10;;;;;;;5.30;2.42;;;28.80;43.50;;;;;;5073691;28;20052;-71
2022/08/11 14:59:36;;;;;;;5.22;1.88;;;28.80;43.80;;;;;;5073260;28;20048;-71
2022/08/11 15:04:49;;;;;;;3.92;1.67;;;28.70;45.80;;;;;;5069561;28;20084;-71
2022/08/11 15:07:15;;;;;;;3.85;1.50;;;28.60;46.20;;;;;;5055583;28;20037;-71
2022/08/11 15:09:43;;;;;;;5.30;1.77;;;28.50;46.70;;;;;;5073146;28;20104;-70
2022/08/11 15:12:16;;;;;;;4.97;1.55;;;28.60;46.30;;;;;;5073168;28;20037;-71
2022/08/11 15:17:34;;;;;;;3.20;1.50;;;28.50;46.80;;;;;;5066469;28;20040;-72
2022/08/11 15:25:33;;;;;;;3.65;1.45;;;28.20;47.60;;;;;;5072521;28;20092;-72
2022/08/11 15:39:17;;;;;;;4.55;1.65;;;28.10;48.80;;;;;;5070924;28;20076;-72
2022/08/11 15:47:39;;;;;;;2.90;1.42;;;28.00;49.70;;;;;;5056179;28;20051;-71
2022/08/11 15:50:37;;;;;;;3.00;1.40;;;27.90;50.20;;;;;;5071355;28;20041;-71
2022/08/11 15:53:07;;;;;;;3.67;1.60;;;27.90;50.60;;;;;;5067893;28;20135;-69
2022/08/11 15:55:35;;;;;;;5.00;1.38;;;27.80;51.10;;;;;;5072534;28;20068;-69
2022/08/11 16:06:32;;;;;;;5.40;1.77;;;27.80;50.30;;;;;;5072196;28;20136;-69
2022/08/11 16:09:03;;;;;;;3.60;1.70;;;27.70;51.10;;;;;;5072268;28;20743;-70
2022/08/11 16:11:32;;;;;;;4.90;1.83;;;27.60;51.80;;;;;;5071791;28;20044;-69
2022/08/11 16:16:48;;;;;;;6.43;1.85;;;27.60;51.80;;;;;;5071422;28;20495;-69
2022/08/11 16:19:15;;;;;;;3.38;1.65;;;27.50;52.60;;;;;;5070779;28;20040;-69
2022/08/11 16:21:42;;;;;;;6.38;1.73;;;27.50;52.20;;;;;;5071284;28;20454;-69
2022/08/11 16:24:13;;;;;;;4.53;2.00;;;27.40;52.30;;;;;;5070761;28;20072;-69
2022/08/11 16:26:41;;;;;;;4.22;1.83;;;27.30;52.80;;;;;;5071983;28;20036;-68
2022/08/11 16:29:10;;;;;;;3.67;2.10;;;27.40;53.10;;;;;;5070541;28;20090;-68
2022/08/11 16:31:39;;;;;;;5.22;1.77;;;27.30;53.20;;;;;;5070399;28;20044;-68
2022/08/11 16:38:33;;;;;;;4.20;2.03;;;27.40;53.40;;;;;;5072340;28;20036;-68
2022/08/11 16:39:39;;;;;;;2.60;1.38;;;27.30;53.50;;;;;;5068266;28;20055;-72
2022/08/11 16:47:39;;;;;;;4.75;1.95;;;27.20;54.60;;;;;;5071374;28;20040;-69
2022/08/11 16:50:06;;;;;;;3.08;1.58;;;27.10;54.90;;;;;;5071414;28;20123;-70
2022/08/11 16:52:32;;;;;;;3.83;1.48;;;27.10;55.10;;;;;;5063658;28;20462;-70
2022/08/11 16:54:58;;;;;;;3.53;1.45;;;27.00;55.40;;;;;;5080106;28;20120;-70
2022/08/11 17:00:14;;;;;;;4.28;2.00;;;26.90;56.30;;;;;;5078642;28;20044;-70
2022/08/11 17:14:43;;;;;;;4.88;2.08;;;26.80;58.20;;;;;;5071128;28;20102;-71
2022/08/11 17:17:22;;;;;;;6.00;1.80;;;26.80;58.40;;;;;;5070655;28;20426;-71
2022/08/11 17:19:51;;;;;;;4.97;1.67;;;26.80;58.50;;;;;;5056005;28;20070;-71
2022/08/11 17:25:31;;;;;;;3.05;2.05;;;26.80;59.50;;;;;;5069423;28;20088;-68
2022/08/11 17:27:59;;;;;;;3.55;1.80;;;26.80;59.60;;;;;;5069529;28;20490;-68
2022/08/11 17:35:27;;;;;;;6.07;1.75;;;26.70;59.80;;;;;;5070969;28;20043;-68
2022/08/11 17:35:59;;;;;;;3.90;1.77;;;26.70;60.50;;;;;;5070770;28;20048;-69
2022/08/11 17:38:26;;;;;;;2.53;1.80;;;26.70;60.80;;;;;;5070670;28;20497;-68
2022/08/11 17:49:12;;;;;;;4.80;2.15;;;26.50;62.30;;;;;;5072096;28;20044;-69
2022/08/11 17:59:59;;;;;;;4.68;1.83;;;26.30;63.40;;;;;;5074419;28;20122;-69
2022/08/11 18:05:17;;;;;;;5.65;1.83;;;26.20;63.60;;;;;;5074366;28;20052;-71
